sensor_id;sensor_type;location;lat;lon;timestamp;temperature;humidity
17333;DHT22;8784;50.94667800;7.08448400;2023-07-13T00:02:26;19.80;63.50
17333;DHT22;8784;50.94667800;7.08448400;2023-07-13T00:04:53;19.80;64.00
17333;DHT22;8784;50.94667800;7.08448400;2023-07-13T00:07:20;19.70;63.80
17333;DHT22;8784;50.94667800;7.08448400;2023-07-13T00:09:47;19.70;64.40
17333;DHT22;8784;50.94667800;7.08448400;2023-07-13T00:12:25;19.70;64.50
17333;DHT22;8784;50.94667800;7.08448400;2023-07-13T00:14:55;19.60;64.50
17333;DHT22;8784;50.94667800;7.08448400;2023-07-13T00:17:22;19.60;64.50
17333;DHT22;8784;50.94667800;7.08448400;2023-07-13T00:19:49;19.50;64.70
17333;DHT22;8784;50.94667800;7.08448400;2023-07-13T00:22:17;19.50;64.90
17333;DHT22;8784;50.94667800;7.08448400;2023-07-13T00:24:44;19.50;65.20
17333;DHT22;8784;50.94667800;7.08448400;2023-07-13T00:27:11;19.40;65.50
17333;DHT22;8784;50.94667800;7.08448400;2023-07-13T00:29:39;19.40;66.10
17333;DHT22;8784;50.94667800;7.08448400;2023-07-13T00:32:08;19.40;65.90
17333;DHT22;8784;50.94667800;7.08448400;2023-07-13T00:34:37;19.40;65.90
17333;DHT22;8784;50.94667800;7.08448400;2023-07-13T00:37:04;19.40;66.20
17333;DHT22;8784;50.94667800;7.08448400;2023-07-13T00:39:32;19.40;65.90
17333;DHT22;8784;50.94667800;7.08448400;2023-07-13T00:41:59;19.40;66.00
17333;DHT22;8784;50.94667800;7.08448400;2023-07-13T00:44:26;19.40;66.40
17333;DHT22;8784;50.94667800;7.08448400;2023-07-13T00:46:54;19.40;66.30
17333;DHT22;8784;50.94667800;7.08448400;2023-07-13T00:49:24;19.40;66.40
17333;DHT22;8784;50.94667800;7.08448400;2023-07-13T00:51:55;19.40;66.40
17333;DHT22;8784;50.94667800;7.08448400;2023-07-13T00:54:24;19.40;66.50
17333;DHT22;8784;50.94667800;7.08448400;2023-07-13T00:56:56;19.40;66.50
17333;DHT22;8784;50.94667800;7.08448400;2023-07-13T00:59:24;19.50;66.80
17333;DHT22;8784;50.94667800;7.08448400;2023-07-13T01:01:51;19.50;66.60
17333;DHT22;8784;50.94667800;7.08448400;2023-07-13T01:04:19;19.50;67.10
17333;DHT22;8784;50.94667800;7.08448400;2023-07-13T01:06:47;19.40;67.10
17333;DHT22;8784;50.94667800;7.08448400;2023-07-13T01:09:14;19.40;67.10
17333;DHT22;8784;50.94667800;7.08448400;2023-07-13T01:11:43;19.40;67.30
17333;DHT22;8784;50.94667800;7.08448400;2023-07-13T01:14:11;19.30;67.30
17333;DHT22;8784;50.94667800;7.08448400;2023-07-13T01:16:39;19.30;67.60
17333;DHT22;8784;50.94667800;7.08448400;2023-07-13T01:19:19;19.30;67.60
17333;DHT22;8784;50.94667800;7.08448400;2023-07-13T01:21:52;19.20;67.80
17333;DHT22;8784;50.94667800;7.08448400;2023-07-13T01:24:19;19.20;67.90
17333;DHT22;8784;50.94667800;7.08448400;2023-07-13T01:26:46;19.10;68.10
17333;DHT22;8784;50.94667800;7.08448400;2023-07-13T01:29:13;19.10;68.30
17333;DHT22;8784;50.94667800;7.08448400;2023-07-13T01:31:40;19.00;68.40
17333;DHT22;8784;50.94667800;7.08448400;2023-07-13T01:34:07;19.00;68.50
17333;DHT22;8784;50.94667800;7.08448400;2023-07-13T01:36:33;18.90;68.70
17333;DHT22;8784;50.94667800;7.08448400;2023-07-13T01:39:03;18.80;68.70
17333;DHT22;8784;50.94667800;7.08448400;2023-07-13T01:41:30;18.80;69.20
17333;DHT22;8784;50.94667800;7.08448400;2023-07-13T01:43:57;18.80;69.40
17333;DHT22;8784;50.94667800;7.08448400;2023-07-13T01:46:23;18.70;69.50
17333;DHT22;8784;50.94667800;7.08448400;2023-07-13T01:48:51;18.70;69.70
17333;DHT22;8784;50.94667800;7.08448400;2023-07-13T01:51:18;18.60;70.00
17333;DHT22;8784;50.94667800;7.08448400;2023-07-13T01:53:46;18.60;70.20
17333;DHT22;8784;50.94667800;7.08448400;2023-07-13T01:56:14;18.50;70.60
17333;DHT22;8784;50.94667800;7.08448400;2023-07-13T01:58:41;18.50;70.70
17333;DHT22;8784;50.94667800;7.08448400;2023-07-13T02:01:09;18.40;70.80
17333;DHT22;8784;50.94667800;7.08448400;2023-07-13T02:03:36;18.40;70.90
17333;DHT22;8784;50.94667800;7.08448400;2023-07-13T02:06:03;18.40;71.00
17333;DHT22;8784;50.94667800;7.08448400;2023-07-13T02:08:30;18.30;71.20
17333;DHT22;8784;50.94667800;7.08448400;2023-07-13T02:10:57;18.30;71.60
17333;DHT22;8784;50.94667800;7.08448400;2023-07-13T02:13:25;18.20;71.60
17333;DHT22;8784;50.94667800;7.08448400;2023-07-13T02:15:52;18.20;71.60
17333;DHT22;8784;50.94667800;7.08448400;2023-07-13T02:18:19;18.20;71.70
17333;DHT22;8784;50.94667800;7.08448400;2023-07-13T02:20:46;18.10;71.90
17333;DHT22;8784;50.94667800;7.08448400;2023-07-13T02:23:13;18.10;72.30
17333;DHT22;8784;50.94667800;7.08448400;2023-07-13T02:25:40;18.10;72.40
17333;DHT22;8784;50.94667800;7.08448400;2023-07-13T02:28:07;18.10;72.70
17333;DHT22;8784;50.94667800;7.08448400;2023-07-13T02:30:35;18.00;72.80
17333;DHT22;8784;50.94667800;7.08448400;2023-07-13T02:33:04;18.00;73.40
17333;DHT22;8784;50.94667800;7.08448400;2023-07-13T02:35:30;18.00;73.40
17333;DHT22;8784;50.94667800;7.08448400;2023-07-13T02:37:57;17.90;73.90
17333;DHT22;8784;50.94667800;7.08448400;2023-07-13T02:40:24;17.80;73.80
17333;DHT22;8784;50.94667800;7.08448400;2023-07-13T02:42:51;17.70;74.40
17333;DHT22;8784;50.94667800;7.08448400;2023-07-13T02:45:18;17.70;74.50
17333;DHT22;8784;50.94667800;7.08448400;2023-07-13T02:47:46;17.60;74.80
17333;DHT22;8784;50.94667800;7.08448400;2023-07-13T02:50:13;17.40;75.10
17333;DHT22;8784;50.94667800;7.08448400;2023-07-13T02:52:40;17.40;75.50
17333;DHT22;8784;50.94667800;7.08448400;2023-07-13T02:55:07;17.40;75.60
17333;DHT22;8784;50.94667800;7.08448400;2023-07-13T02:57:35;17.30;75.90
17333;DHT22;8784;50.94667800;7.08448400;2023-07-13T03:00:02;17.30;75.80
17333;DHT22;8784;50.94667800;7.08448400;2023-07-13T03:02:31;17.10;76.00
17333;DHT22;8784;50.94667800;7.08448400;2023-07-13T03:05:00;17.00;76.40
17333;DHT22;8784;50.94667800;7.08448400;2023-07-13T03:07:27;17.00;76.40
17333;DHT22;8784;50.94667800;7.08448400;2023-07-13T03:09:55;16.90;76.80
17333;DHT22;8784;50.94667800;7.08448400;2023-07-13T03:12:22;16.80;76.90
17333;DHT22;8784;50.94667800;7.08448400;2023-07-13T03:14:49;16.70;77.20
17333;DHT22;8784;50.94667800;7.08448400;2023-07-13T03:17:16;16.50;77.50
17333;DHT22;8784;50.94667800;7.08448400;2023-07-13T03:19:43;16.50;77.90
17333;DHT22;8784;50.94667800;7.08448400;2023-07-13T03:22:11;16.40;78.00
17333;DHT22;8784;50.94667800;7.08448400;2023-07-13T03:24:38;16.30;78.30
17333;DHT22;8784;50.94667800;7.08448400;2023-07-13T03:27:06;16.30;78.60
17333;DHT22;8784;50.94667800;7.08448400;2023-07-13T03:29:33;16.20;78.90
17333;DHT22;8784;50.94667800;7.08448400;2023-07-13T03:32:00;16.00;79.30
17333;DHT22;8784;50.94667800;7.08448400;2023-07-13T03:34:27;15.90;79.60
17333;DHT22;8784;50.94667800;7.08448400;2023-07-13T03:36:54;15.80;80.00
17333;DHT22;8784;50.94667800;7.08448400;2023-07-13T03:39:23;15.80;80.30
17333;DHT22;8784;50.94667800;7.08448400;2023-07-13T03:41:50;15.80;80.40
17333;DHT22;8784;50.94667800;7.08448400;2023-07-13T03:44:18;15.70;80.40
17333;DHT22;8784;50.94667800;7.08448400;2023-07-13T03:46:45;15.70;80.70
17333;DHT22;8784;50.94667800;7.08448400;2023-07-13T03:49:12;15.80;80.80
17333;DHT22;8784;50.94667800;7.08448400;2023-07-13T03:51:39;15.80;80.90
17333;DHT22;8784;50.94667800;7.08448400;2023-07-13T03:54:06;15.90;80.90
17333;DHT22;8784;50.94667800;7.08448400;2023-07-13T03:56:34;16.00;81.00
17333;DHT22;8784;50.94667800;7.08448400;2023-07-13T03:59:01;16.00;80.90
17333;DHT22;8784;50.94667800;7.08448400;2023-07-13T04:01:28;16.00;81.00
17333;DHT22;8784;50.94667800;7.08448400;2023-07-13T04:03:55;16.10;81.00
17333;DHT22;8784;50.94667800;7.08448400;2023-07-13T04:06:26;16.10;81.20
17333;DHT22;8784;50.94667800;7.08448400;2023-07-13T04:08:54;16.10;81.10
17333;DHT22;8784;50.94667800;7.08448400;2023-07-13T04:11:23;16.10;81.30
17333;DHT22;8784;50.94667800;7.08448400;2023-07-13T04:13:52;16.00;81.30
17333;DHT22;8784;50.94667800;7.08448400;2023-07-13T04:16:19;16.10;81.60
17333;DHT22;8784;50.94667800;7.08448400;2023-07-13T04:18:47;16.00;81.60
17333;DHT22;8784;50.94667800;7.08448400;2023-07-13T04:21:15;16.10;82.20
17333;DHT22;8784;50.94667800;7.08448400;2023-07-13T04:23:42;16.10;82.30
17333;DHT22;8784;50.94667800;7.08448400;2023-07-13T04:26:09;16.20;82.10
17333;DHT22;8784;50.94667800;7.08448400;2023-07-13T04:28:36;16.20;82.20
17333;DHT22;8784;50.94667800;7.08448400;2023-07-13T04:31:04;16.20;82.60
17333;DHT22;8784;50.94667800;7.08448400;2023-07-13T04:33:31;16.20;82.90
17333;DHT22;8784;50.94667800;7.08448400;2023-07-13T04:35:58;16.20;82.60
17333;DHT22;8784;50.94667800;7.08448400;2023-07-13T04:38:27;16.30;82.70
17333;DHT22;8784;50.94667800;7.08448400;2023-07-13T04:40:55;16.40;82.80
17333;DHT22;8784;50.94667800;7.08448400;2023-07-13T04:43:23;16.40;82.90
17333;DHT22;8784;50.94667800;7.08448400;2023-07-13T04:45:50;16.40;82.80
17333;DHT22;8784;50.94667800;7.08448400;2023-07-13T04:48:18;16.50;83.00
17333;DHT22;8784;50.94667800;7.08448400;2023-07-13T04:50:46;16.50;82.90
17333;DHT22;8784;50.94667800;7.08448400;2023-07-13T04:53:14;16.50;83.10
17333;DHT22;8784;50.94667800;7.08448400;2023-07-13T04:55:41;16.60;83.30
17333;DHT22;8784;50.94667800;7.08448400;2023-07-13T04:58:08;16.60;83.60
17333;DHT22;8784;50.94667800;7.08448400;2023-07-13T05:00:35;16.70;83.60
17333;DHT22;8784;50.94667800;7.08448400;2023-07-13T05:03:03;16.80;84.00
17333;DHT22;8784;50.94667800;7.08448400;2023-07-13T05:05:31;16.90;83.80
17333;DHT22;8784;50.94667800;7.08448400;2023-07-13T05:07:59;17.00;84.10
17333;DHT22;8784;50.94667800;7.08448400;2023-07-13T05:10:26;17.10;83.90
17333;DHT22;8784;50.94667800;7.08448400;2023-07-13T05:12:53;17.20;84.00
17333;DHT22;8784;50.94667800;7.08448400;2023-07-13T05:15:21;17.20;83.80
17333;DHT22;8784;50.94667800;7.08448400;2023-07-13T05:17:49;17.30;83.90
17333;DHT22;8784;50.94667800;7.08448400;2023-07-13T05:20:17;17.30;83.90
17333;DHT22;8784;50.94667800;7.08448400;2023-07-13T05:22:45;17.50;83.90
17333;DHT22;8784;50.94667800;7.08448400;2023-07-13T05:25:13;17.50;83.40
17333;DHT22;8784;50.94667800;7.08448400;2023-07-13T05:27:40;17.60;83.20
17333;DHT22;8784;50.94667800;7.08448400;2023-07-13T05:30:08;17.60;82.90
17333;DHT22;8784;50.94667800;7.08448400;2023-07-13T05:32:37;17.80;83.30
17333;DHT22;8784;50.94667800;7.08448400;2023-07-13T05:35:04;17.80;82.90
17333;DHT22;8784;50.94667800;7.08448400;2023-07-13T05:37:32;17.90;82.80
17333;DHT22;8784;50.94667800;7.08448400;2023-07-13T05:40:00;18.00;83.00
17333;DHT22;8784;50.94667800;7.08448400;2023-07-13T05:42:27;18.10;82.80
17333;DHT22;8784;50.94667800;7.08448400;2023-07-13T05:44:53;18.20;82.60
17333;DHT22;8784;50.94667800;7.08448400;2023-07-13T05:47:21;18.30;83.30
17333;DHT22;8784;50.94667800;7.08448400;2023-07-13T05:49:48;18.40;82.40
17333;DHT22;8784;50.94667800;7.08448400;2023-07-13T05:52:14;18.50;82.40
17333;DHT22;8784;50.94667800;7.08448400;2023-07-13T05:54:41;18.60;82.20
17333;DHT22;8784;50.94667800;7.08448400;2023-07-13T05:57:10;18.70;82.10
17333;DHT22;8784;50.94667800;7.08448400;2023-07-13T05:59:37;18.90;81.80
17333;DHT22;8784;50.94667800;7.08448400;2023-07-13T06:02:04;19.00;81.60
17333;DHT22;8784;50.94667800;7.08448400;2023-07-13T06:04:31;19.10;81.30
17333;DHT22;8784;50.94667800;7.08448400;2023-07-13T06:06:57;19.20;81.20
17333;DHT22;8784;50.94667800;7.08448400;2023-07-13T06:09:25;19.30;81.20
17333;DHT22;8784;50.94667800;7.08448400;2023-07-13T06:11:52;19.40;80.90
17333;DHT22;8784;50.94667800;7.08448400;2023-07-13T06:14:21;19.50;80.80
17333;DHT22;8784;50.94667800;7.08448400;2023-07-13T06:16:48;19.70;80.70
17333;DHT22;8784;50.94667800;7.08448400;2023-07-13T06:19:15;19.80;80.20
17333;DHT22;8784;50.94667800;7.08448400;2023-07-13T06:21:42;19.90;79.90
17333;DHT22;8784;50.94667800;7.08448400;2023-07-13T06:24:08;20.00;79.70
17333;DHT22;8784;50.94667800;7.08448400;2023-07-13T06:26:35;20.00;79.40
17333;DHT22;8784;50.94667800;7.08448400;2023-07-13T06:29:02;20.10;79.30
17333;DHT22;8784;50.94667800;7.08448400;2023-07-13T06:31:31;20.20;79.10
17333;DHT22;8784;50.94667800;7.08448400;2023-07-13T06:33:58;20.40;79.60
17333;DHT22;8784;50.94667800;7.08448400;2023-07-13T06:36:24;20.50;78.80
17333;DHT22;8784;50.94667800;7.08448400;2023-07-13T06:38:51;20.70;78.40
17333;DHT22;8784;50.94667800;7.08448400;2023-07-13T06:41:18;21.00;78.10
17333;DHT22;8784;50.94667800;7.08448400;2023-07-13T06:43:45;21.20;77.50
17333;DHT22;8784;50.94667800;7.08448400;2023-07-13T06:46:12;21.50;77.00
17333;DHT22;8784;50.94667800;7.08448400;2023-07-13T06:48:40;21.70;76.40
17333;DHT22;8784;50.94667800;7.08448400;2023-07-13T06:51:08;21.90;76.50
17333;DHT22;8784;50.94667800;7.08448400;2023-07-13T06:53:35;22.30;75.20
17333;DHT22;8784;50.94667800;7.08448400;2023-07-13T06:56:02;23.50;74.10
17333;DHT22;8784;50.94667800;7.08448400;2023-07-13T06:58:29;25.80;71.20
17333;DHT22;8784;50.94667800;7.08448400;2023-07-13T07:00:56;27.30;68.30
17333;DHT22;8784;50.94667800;7.08448400;2023-07-13T07:03:23;29.00;65.60
17333;DHT22;8784;50.94667800;7.08448400;2023-07-13T07:05:51;31.20;62.20
17333;DHT22;8784;50.94667800;7.08448400;2023-07-13T07:08:18;33.00;58.80
17333;DHT22;8784;50.94667800;7.08448400;2023-07-13T07:10:45;34.30;56.70
17333;DHT22;8784;50.94667800;7.08448400;2023-07-13T07:13:12;35.70;54.40
17333;DHT22;8784;50.94667800;7.08448400;2023-07-13T07:15:39;36.50;52.50
17333;DHT22;8784;50.94667800;7.08448400;2023-07-13T07:18:06;36.70;51.00
17333;DHT22;8784;50.94667800;7.08448400;2023-07-13T07:20:33;37.60;49.90
17333;DHT22;8784;50.94667800;7.08448400;2023-07-13T07:23:01;38.60;48.30
17333;DHT22;8784;50.94667800;7.08448400;2023-07-13T07:25:28;39.50;46.80
17333;DHT22;8784;50.94667800;7.08448400;2023-07-13T07:27:57;40.60;45.60
17333;DHT22;8784;50.94667800;7.08448400;2023-07-13T07:30:24;41.30;44.40
17333;DHT22;8784;50.94667800;7.08448400;2023-07-13T07:32:51;41.90;43.40
17333;DHT22;8784;50.94667800;7.08448400;2023-07-13T07:35:18;41.80;42.20
17333;DHT22;8784;50.94667800;7.08448400;2023-07-13T07:37:45;41.90;41.60
17333;DHT22;8784;50.94667800;7.08448400;2023-07-13T07:40:13;42.60;40.90
17333;DHT22;8784;50.94667800;7.08448400;2023-07-13T07:42:40;42.80;39.90
17333;DHT22;8784;50.94667800;7.08448400;2023-07-13T07:45:07;41.20;40.20
17333;DHT22;8784;50.94667800;7.08448400;2023-07-13T07:47:36;40.60;40.70
17333;DHT22;8784;50.94667800;7.08448400;2023-07-13T07:50:04;40.90;40.50
17333;DHT22;8784;50.94667800;7.08448400;2023-07-13T07:52:31;41.50;39.90
17333;DHT22;8784;50.94667800;7.08448400;2023-07-13T07:54:58;42.10;39.30
17333;DHT22;8784;50.94667800;7.08448400;2023-07-13T07:57:26;42.30;38.80
17333;DHT22;8784;50.94667800;7.08448400;2023-07-13T07:59:53;42.80;38.20
17333;DHT22;8784;50.94667800;7.08448400;2023-07-13T08:02:20;43.50;37.90
17333;DHT22;8784;50.94667800;7.08448400;2023-07-13T08:04:47;42.80;37.60
17333;DHT22;8784;50.94667800;7.08448400;2023-07-13T08:07:14;41.70;37.70
17333;DHT22;8784;50.94667800;7.08448400;2023-07-13T08:09:40;41.10;38.00
17333;DHT22;8784;50.94667800;7.08448400;2023-07-13T08:12:08;40.80;38.40
17333;DHT22;8784;50.94667800;7.08448400;2023-07-13T08:14:36;41.50;38.30
17333;DHT22;8784;50.94667800;7.08448400;2023-07-13T08:17:04;41.60;37.80
17333;DHT22;8784;50.94667800;7.08448400;2023-07-13T08:19:31;40.40;37.80
17333;DHT22;8784;50.94667800;7.08448400;2023-07-13T08:21:58;40.30;38.50
17333;DHT22;8784;50.94667800;7.08448400;2023-07-13T08:24:25;40.80;38.40
17333;DHT22;8784;50.94667800;7.08448400;2023-07-13T08:26:51;41.00;38.10
17333;DHT22;8784;50.94667800;7.08448400;2023-07-13T08:29:18;41.20;37.80
17333;DHT22;8784;50.94667800;7.08448400;2023-07-13T08:31:47;42.50;37.50
17333;DHT22;8784;50.94667800;7.08448400;2023-07-13T08:34:14;43.40;36.80
17333;DHT22;8784;50.94667800;7.08448400;2023-07-13T08:36:41;43.90;36.20
17333;DHT22;8784;50.94667800;7.08448400;2023-07-13T08:39:08;44.30;35.90
17333;DHT22;8784;50.94667800;7.08448400;2023-07-13T08:41:35;44.20;35.60
17333;DHT22;8784;50.94667800;7.08448400;2023-07-13T08:44:05;43.40;35.20
17333;DHT22;8784;50.94667800;7.08448400;2023-07-13T08:46:37;41.90;36.00
17333;DHT22;8784;50.94667800;7.08448400;2023-07-13T08:49:11;40.30;36.80
17333;DHT22;8784;50.94667800;7.08448400;2023-07-13T08:51:41;39.00;37.60
17333;DHT22;8784;50.94667800;7.08448400;2023-07-13T08:54:16;38.10;38.30
17333;DHT22;8784;50.94667800;7.08448400;2023-07-13T08:56:45;37.20;39.10
17333;DHT22;8784;50.94667800;7.08448400;2023-07-13T08:59:15;36.50;40.00
17333;DHT22;8784;50.94667800;7.08448400;2023-07-13T09:02:01;36.00;40.40
17333;DHT22;8784;50.94667800;7.08448400;2023-07-13T09:04:37;35.30;40.70
17333;DHT22;8784;50.94667800;7.08448400;2023-07-13T09:07:13;34.80;41.40
17333;DHT22;8784;50.94667800;7.08448400;2023-07-13T09:09:52;34.10;41.80
17333;DHT22;8784;50.94667800;7.08448400;2023-07-13T09:12:26;33.20;42.70
17333;DHT22;8784;50.94667800;7.08448400;2023-07-13T09:14:58;32.90;43.60
17333;DHT22;8784;50.94667800;7.08448400;2023-07-13T09:17:28;32.70;44.00
17333;DHT22;8784;50.94667800;7.08448400;2023-07-13T09:20:00;32.30;44.30
17333;DHT22;8784;50.94667800;7.08448400;2023-07-13T09:22:33;32.10;45.40
17333;DHT22;8784;50.94667800;7.08448400;2023-07-13T09:25:05;31.70;45.10
17333;DHT22;8784;50.94667800;7.08448400;2023-07-13T09:27:40;31.20;45.40
17333;DHT22;8784;50.94667800;7.08448400;2023-07-13T09:30:23;30.80;46.00
17333;DHT22;8784;50.94667800;7.08448400;2023-07-13T09:32:52;30.90;46.40
17333;DHT22;8784;50.94667800;7.08448400;2023-07-13T09:35:24;31.40;46.20
17333;DHT22;8784;50.94667800;7.08448400;2023-07-13T09:37:57;31.70;46.20
17333;DHT22;8784;50.94667800;7.08448400;2023-07-13T09:40:30;31.80;45.80
17333;DHT22;8784;50.94667800;7.08448400;2023-07-13T09:42:59;32.00;46.00
17333;DHT22;8784;50.94667800;7.08448400;2023-07-13T09:45:30;32.30;45.90
17333;DHT22;8784;50.94667800;7.08448400;2023-07-13T09:48:04;32.80;45.60
17333;DHT22;8784;50.94667800;7.08448400;2023-07-13T09:50:34;33.30;45.00
17333;DHT22;8784;50.94667800;7.08448400;2023-07-13T09:53:01;33.60;44.50
17333;DHT22;8784;50.94667800;7.08448400;2023-07-13T09:55:31;33.80;44.10
17333;DHT22;8784;50.94667800;7.08448400;2023-07-13T09:58:03;34.10;43.90
17333;DHT22;8784;50.94667800;7.08448400;2023-07-13T10:00:30;33.90;43.50
17333;DHT22;8784;50.94667800;7.08448400;2023-07-13T10:03:03;33.50;43.50
17333;DHT22;8784;50.94667800;7.08448400;2023-07-13T10:05:39;33.10;44.10
17333;DHT22;8784;50.94667800;7.08448400;2023-07-13T10:08:16;33.00;44.50
17333;DHT22;8784;50.94667800;7.08448400;2023-07-13T10:10:44;32.90;44.50
17333;DHT22;8784;50.94667800;7.08448400;2023-07-13T10:13:34;32.90;44.40
17333;DHT22;8784;50.94667800;7.08448400;2023-07-13T10:16:04;33.00;44.40
17333;DHT22;8784;50.94667800;7.08448400;2023-07-13T10:18:39;32.90;44.40
17333;DHT22;8784;50.94667800;7.08448400;2023-07-13T10:21:14;32.90;44.20
17333;DHT22;8784;50.94667800;7.08448400;2023-07-13T10:23:42;32.80;44.10
17333;DHT22;8784;50.94667800;7.08448400;2023-07-13T10:26:15;32.80;44.20
17333;DHT22;8784;50.94667800;7.08448400;2023-07-13T10:28:45;32.60;43.90
17333;DHT22;8784;50.94667800;7.08448400;2023-07-13T10:31:15;32.30;43.90
17333;DHT22;8784;50.94667800;7.08448400;2023-07-13T10:33:43;31.90;43.90
17333;DHT22;8784;50.94667800;7.08448400;2023-07-13T10:36:20;31.40;44.50
17333;DHT22;8784;50.94667800;7.08448400;2023-07-13T10:38:51;31.10;44.70
17333;DHT22;8784;50.94667800;7.08448400;2023-07-13T10:41:21;30.80;45.10
17333;DHT22;8784;50.94667800;7.08448400;2023-07-13T10:43:52;30.80;45.50
17333;DHT22;8784;50.94667800;7.08448400;2023-07-13T10:46:22;30.90;45.60
17333;DHT22;8784;50.94667800;7.08448400;2023-07-13T10:48:52;30.90;45.80
17333;DHT22;8784;50.94667800;7.08448400;2023-07-13T10:51:22;30.80;45.90
17333;DHT22;8784;50.94667800;7.08448400;2023-07-13T10:54:19;30.80;45.80
17333;DHT22;8784;50.94667800;7.08448400;2023-07-13T10:56:52;30.90;45.80
17333;DHT22;8784;50.94667800;7.08448400;2023-07-13T10:59:24;31.20;46.10
17333;DHT22;8784;50.94667800;7.08448400;2023-07-13T11:01:56;31.40;45.60
17333;DHT22;8784;50.94667800;7.08448400;2023-07-13T11:04:26;31.70;45.40
17333;DHT22;8784;50.94667800;7.08448400;2023-07-13T11:06:57;31.90;45.20
17333;DHT22;8784;50.94667800;7.08448400;2023-07-13T11:09:35;31.70;45.20
17333;DHT22;8784;50.94667800;7.08448400;2023-07-13T11:12:25;31.40;45.20
17333;DHT22;8784;50.94667800;7.08448400;2023-07-13T11:15:09;30.90;46.40
17333;DHT22;8784;50.94667800;7.08448400;2023-07-13T11:17:48;30.70;46.30
17333;DHT22;8784;50.94667800;7.08448400;2023-07-13T11:20:23;30.90;46.60
17333;DHT22;8784;50.94667800;7.08448400;2023-07-13T11:26:00;30.60;46.40
17333;DHT22;8784;50.94667800;7.08448400;2023-07-13T11:28:31;30.20;46.70
17333;DHT22;8784;50.94667800;7.08448400;2023-07-13T11:31:12;29.70;47.00
17333;DHT22;8784;50.94667800;7.08448400;2023-07-13T11:33:56;29.30;47.50
17333;DHT22;8784;50.94667800;7.08448400;2023-07-13T11:36:28;28.90;48.10
17333;DHT22;8784;50.94667800;7.08448400;2023-07-13T11:39:03;28.70;48.30
17333;DHT22;8784;50.94667800;7.08448400;2023-07-13T11:41:35;28.50;48.60
17333;DHT22;8784;50.94667800;7.08448400;2023-07-13T11:44:11;28.40;48.80
17333;DHT22;8784;50.94667800;7.08448400;2023-07-13T11:46:38;28.20;49.20
17333;DHT22;8784;50.94667800;7.08448400;2023-07-13T11:49:05;28.00;49.40
17333;DHT22;8784;50.94667800;7.08448400;2023-07-13T11:51:35;28.00;49.70
17333;DHT22;8784;50.94667800;7.08448400;2023-07-13T11:54:06;28.00;49.40
17333;DHT22;8784;50.94667800;7.08448400;2023-07-13T11:56:33;27.80;49.40
17333;DHT22;8784;50.94667800;7.08448400;2023-07-13T11:59:05;27.50;50.10
17333;DHT22;8784;50.94667800;7.08448400;2023-07-13T12:01:33;27.30;49.80
17333;DHT22;8784;50.94667800;7.08448400;2023-07-13T12:04:02;26.90;50.10
17333;DHT22;8784;50.94667800;7.08448400;2023-07-13T12:06:31;26.60;50.60
17333;DHT22;8784;50.94667800;7.08448400;2023-07-13T12:08:59;26.40;50.90
17333;DHT22;8784;50.94667800;7.08448400;2023-07-13T12:11:34;26.20;51.30
17333;DHT22;8784;50.94667800;7.08448400;2023-07-13T12:14:02;26.10;51.70
17333;DHT22;8784;50.94667800;7.08448400;2023-07-13T12:16:31;26.10;52.00
17333;DHT22;8784;50.94667800;7.08448400;2023-07-13T12:19:00;26.20;52.00
17333;DHT22;8784;50.94667800;7.08448400;2023-07-13T12:21:31;26.40;52.00
17333;DHT22;8784;50.94667800;7.08448400;2023-07-13T12:23:58;26.50;52.00
17333;DHT22;8784;50.94667800;7.08448400;2023-07-13T12:26:29;26.50;51.90
17333;DHT22;8784;50.94667800;7.08448400;2023-07-13T12:28:59;26.50;52.10
17333;DHT22;8784;50.94667800;7.08448400;2023-07-13T12:31:33;26.30;52.10
17333;DHT22;8784;50.94667800;7.08448400;2023-07-13T12:34:02;26.10;52.00
17333;DHT22;8784;50.94667800;7.08448400;2023-07-13T12:36:32;25.90;52.00
17333;DHT22;8784;50.94667800;7.08448400;2023-07-13T12:39:04;25.70;52.10
17333;DHT22;8784;50.94667800;7.08448400;2023-07-13T12:41:35;25.60;52.40
17333;DHT22;8784;50.94667800;7.08448400;2023-07-13T12:44:02;25.50;52.50
17333;DHT22;8784;50.94667800;7.08448400;2023-07-13T12:46:29;25.50;52.50
17333;DHT22;8784;50.94667800;7.08448400;2023-07-13T12:48:57;25.60;52.50
17333;DHT22;8784;50.94667800;7.08448400;2023-07-13T12:51:26;25.70;52.40
17333;DHT22;8784;50.94667800;7.08448400;2023-07-13T12:53:57;25.80;52.30
17333;DHT22;8784;50.94667800;7.08448400;2023-07-13T12:56:26;26.10;52.20
17333;DHT22;8784;50.94667800;7.08448400;2023-07-13T12:58:58;26.20;52.10
17333;DHT22;8784;50.94667800;7.08448400;2023-07-13T13:01:27;26.30;52.00
17333;DHT22;8784;50.94667800;7.08448400;2023-07-13T13:03:54;26.20;51.60
17333;DHT22;8784;50.94667800;7.08448400;2023-07-13T13:06:24;26.00;51.60
17333;DHT22;8784;50.94667800;7.08448400;2023-07-13T13:08:53;26.00;51.80
17333;DHT22;8784;50.94667800;7.08448400;2023-07-13T13:11:22;26.00;51.80
17333;DHT22;8784;50.94667800;7.08448400;2023-07-13T13:13:50;26.00;51.60
17333;DHT22;8784;50.94667800;7.08448400;2023-07-13T13:16:20;26.00;51.10
17333;DHT22;8784;50.94667800;7.08448400;2023-07-13T13:18:48;26.00;50.90
17333;DHT22;8784;50.94667800;7.08448400;2023-07-13T13:21:15;26.10;50.90
17333;DHT22;8784;50.94667800;7.08448400;2023-07-13T13:23:42;26.10;51.00
17333;DHT22;8784;50.94667800;7.08448400;2023-07-13T13:26:13;26.20;51.10
17333;DHT22;8784;50.94667800;7.08448400;2023-07-13T13:28:41;26.20;51.10
17333;DHT22;8784;50.94667800;7.08448400;2023-07-13T13:31:10;26.30;51.20
17333;DHT22;8784;50.94667800;7.08448400;2023-07-13T13:33:41;26.40;51.30
17333;DHT22;8784;50.94667800;7.08448400;2023-07-13T13:36:18;26.50;52.00
17333;DHT22;8784;50.94667800;7.08448400;2023-07-13T13:38:47;26.50;51.10
17333;DHT22;8784;50.94667800;7.08448400;2023-07-13T13:41:14;26.50;51.00
17333;DHT22;8784;50.94667800;7.08448400;2023-07-13T13:43:42;26.50;51.20
17333;DHT22;8784;50.94667800;7.08448400;2023-07-13T13:46:15;26.60;50.60
17333;DHT22;8784;50.94667800;7.08448400;2023-07-13T13:48:44;26.60;50.30